Time,TemperatureF,DewpointF,PressureIn,WindDirection,WindDirectionDegrees,WindSpeedMPH,WindSpeedGustMPH,Humidity,HourlyPrecipIn,Conditions,Clouds,dailyrainin,SoftwareType,DateUTC
2013-08-29 00:00:00,73.0,68.9,29.97,West,260,0.0,0.0,87,0.00,,SKC,0.00,VWS V14.01,2013-08-29 04:00:00,
2013-08-29 00:01:00,73.0,68.9,29.97,West,260,0.0,0.0,87,0.00,,SKC,0.00,VWS V14.01,2013-08-29 04:01:00,
2013-08-29 00:02:00,73.0,68.9,29.97,West,259,0.0,0.0,87,0.00,,SKC,0.00,VWS V14.01,2013-08-29 04:02:00,
2013-08-29 00:06:00,72.9,68.8,29.97,West,260,0.0,0.0,87,0.00,,SKC,0.00,VWS V14.01,2013-08-29 04:06:00,
2013-08-29 00:09:00,72.9,68.8,29.97,West,260,0.0,0.0,87,0.00,,SKC,0.00,VWS V14.01,2013-08-29 04:09:00,
2013-08-29 00:15:00,72.7,68.6,29.97,West,260,0.0,0.0,87,0.00,,SKC,0.00,VWS V14.01,2013-08-29 04:15:00,
2013-08-29 00:20:00,72.7,68.6,29.96,West,260,0.0,0.0,87,0.00,,SKC,0.00,VWS V14.01,2013-08-29 04:20:00,
2013-08-29 00:23:00,72.6,68.5,29.96,West,260,0.0,0.0,87,0.00,,SKC,0.00,VWS V14.01,2013-08-29 04:23:00,
2013-08-29 00:28:00,72.5,68.4,29.96,West,260,0.0,0.0,87,0.00,,SKC,0.00,VWS V14.01,2013-08-29 04:28:00,
2013-08-29 00:29:00,72.5,68.4,29.96,West,260,0.0,0.0,87,0.00,,SKC,0.00,VWS V14.01,2013-08-29 04:29:00,
2013-08-29 00:30:00,72.5,68.4,29.96,West,260,0.0,0.0,87,0.00,,SKC,0.00,VWS V14.01,2013-08-29 04:30:00,
2013-08-29 00:35:00,72.4,68.7,29.95,West,260,0.0,0.0,88,0.00,,SKC,0.00,VWS V14.01,2013-08-29 04:35:00,
2013-08-29 00:40:00,72.3,68.6,29.95,West,260,0.0,0.0,88,0.00,,SKC,0.00,VWS V14.01,2013-08-29 04:40:00,
2013-08-29 00:46:00,72.2,68.4,29.95,West,260,0.0,0.0,88,0.00,,SKC,0.00,VWS V14.01,2013-08-29 04:46:00,
2013-08-29 00:51:00,72.1,68.3,29.95,West,260,0.0,0.0,88,0.00,,SKC,0.00,VWS V14.01,2013-08-29 04:51:00,
2013-08-29 00:57:00,72.0,68.3,29.95,West,260,0.0,0.0,88,0.00,,SKC,0.00,VWS V14.01,2013-08-29 04:57:00,
2013-08-29 01:00:00,71.9,68.2,29.95,West,260,0.0,0.0,88,0.00,,SKC,0.00,VWS V14.01,2013-08-29 05:00:00,
2013-08-29 01:02:00,71.8,68.1,29.95,West,260,0.0,0.0,88,0.00,,SKC,0.00,VWS V14.01,2013-08-29 05:02:00,
2013-08-29 01:08:00,71.7,68.3,29.95,West,260,0.0,0.0,89,0.00,,SKC,0.00,VWS V14.01,2013-08-29 05:08:00,
2013-08-29 01:13:00,71.6,68.2,29.95,West,260,0.0,0.0,89,0.00,,SKC,0.00,VWS V14.01,2013-08-29 05:13:00,
2013-08-29 01:18:00,71.6,68.2,29.95,West,260,0.0,0.0,89,0.00,,SKC,0.00,VWS V14.01,2013-08-29 05:18:00,
2013-08-29 01:24:00,71.5,68.1,29.95,West,260,0.0,0.0,89,0.00,,SKC,0.00,VWS V14.01,2013-08-29 05:24:00,
2013-08-29 01:29:00,71.4,68.0,29.95,West,260,0.0,0.0,89,0.00,,SKC,0.00,VWS V14.01,2013-08-29 05:29:00,
2013-08-29 01:30:00,71.4,68.0,29.95,West,260,0.0,0.0,89,0.00,,SKC,0.00,VWS V14.01,2013-08-29 05:30:00,
2013-08-29 01:35:00,71.3,67.9,29.95,West,260,0.0,0.0,89,0.00,,SKC,0.00,VWS V14.01,2013-08-29 05:35:00,
2013-08-29 01:40:00,71.3,67.9,29.94,West,260,0.0,0.0,89,0.00,,SKC,0.00,VWS V14.01,2013-08-29 05:40:00,
2013-08-29 01:46:00,71.5,68.1,29.95,West,259,0.0,0.0,89,0.00,,SKC,0.00,VWS V14.01,2013-08-29 05:46:00,
2013-08-29 01:51:00,71.6,68.2,29.94,West,260,0.0,0.0,89,0.00,,SKC,0.00,VWS V14.01,2013-08-29 05:51:00,
2013-08-29 01:56:00,71.4,68.0,29.94,West,260,0.0,0.0,89,0.00,,SKC,0.00,VWS V14.01,2013-08-29 05:56:00,
2013-08-29 02:00:00,71.3,67.9,29.94,West,259,0.0,0.0,89,0.00,,SKC,0.00,VWS V14.01,2013-08-29 06:00:00,
2013-08-29 02:02:00,71.3,67.9,29.95,West,260,0.0,0.0,89,0.00,,SKC,0.00,VWS V14.01,2013-08-29 06:02:00,
2013-08-29 02:07:00,71.1,67.7,29.94,West,259,0.0,0.0,89,0.00,,SKC,0.00,VWS V14.01,2013-08-29 06:07:00,
2013-08-29 02:13:00,71.1,67.7,29.94,West,260,0.0,0.0,89,0.00,,SKC,0.00,VWS V14.01,2013-08-29 06:13:00,
2013-08-29 02:18:00,71.0,67.6,29.94,West,260,0.0,0.0,89,0.00,,SKC,0.00,VWS V14.01,2013-08-29 06:18:00,
2013-08-29 02:24:00,71.0,67.6,29.94,West,259,0.0,0.0,89,0.00,,SKC,0.00,VWS V14.01,2013-08-29 06:24:00,
2013-08-29 02:29:00,70.8,67.4,29.94,West,259,0.0,0.0,89,0.00,,SKC,0.00,VWS V14.01,2013-08-29 06:29:00,
2013-08-29 02:30:00,70.8,67.4,29.94,West,260,0.0,0.0,89,0.00,,SKC,0.00,VWS V14.01,2013-08-29 06:30:00,
2013-08-29 02:34:00,70.6,67.2,29.94,West,259,0.0,0.0,89,0.00,,SKC,0.00,VWS V14.01,2013-08-29 06:34:00,
2013-08-29 02:40:00,70.5,67.1,29.94,West,260,0.0,0.0,89,0.00,,SKC,0.00,VWS V14.01,2013-08-29 06:40:00,
2013-08-29 02:45:00,70.4,67.0,29.95,West,260,0.0,0.0,89,0.00,,SKC,0.00,VWS V14.01,2013-08-29 06:45:00,
2013-08-29 02:51:00,70.3,66.9,29.95,West,260,0.0,0.0,89,0.00,,SKC,0.00,VWS V14.01,2013-08-29 06:51:00,
2013-08-29 02:56:00,70.3,66.9,29.95,West,260,0.0,0.0,89,0.00,,SKC,0.00,VWS V14.01,2013-08-29 06:56:00,
2013-08-29 03:00:00,70.3,66.9,29.95,West,260,0.0,0.0,89,0.00,,SKC,0.00,VWS V14.01,2013-08-29 07:00:00,
2013-08-29 03:02:00,70.3,66.9,29.95,West,260,0.0,0.0,89,0.00,,SKC,0.00,VWS V14.01,2013-08-29 07:02:00,
2013-08-29 03:07:00,70.4,66.7,29.95,West,262,0.0,0.0,88,0.00,,SKC,0.00,VWS V14.01,2013-08-29 07:07:00,
2013-08-29 03:12:00,70.5,66.8,29.94,West,262,0.0,0.0,88,0.00,,SKC,0.00,VWS V14.01,2013-08-29 07:12:00,
2013-08-29 03:18:00,70.4,67.0,29.94,West,262,0.0,0.0,89,0.00,,SKC,0.00,VWS V14.01,2013-08-29 07:18:00,
2013-08-29 03:23:00,70.3,66.9,29.94,West,262,0.0,0.0,89,0.00,,SKC,0.00,VWS V14.01,2013-08-29 07:23:00,
2013-08-29 03:29:00,70.2,66.8,29.94,West,262,0.0,0.0,89,0.00,,SKC,0.00,VWS V14.01,2013-08-29 07:29:00,
2013-08-29 03:30:00,70.3,66.9,29.94,West,262,0.0,0.0,89,0.00,,SKC,0.00,VWS V14.01,2013-08-29 07:30:00,
2013-08-29 03:34:00,70.2,66.8,29.94,West,262,0.0,0.0,89,0.00,,SKC,0.00,VWS V14.01,2013-08-29 07:34:00,
2013-08-29 03:40:00,70.2,66.5,29.94,West,262,0.0,0.0,88,0.00,,SKC,0.00,VWS V14.01,2013-08-29 07:40:00,
2013-08-29 03:45:00,70.1,66.4,29.94,West,262,0.0,0.0,88,0.00,,SKC,0.00,VWS V14.01,2013-08-29 07:45:00,
2013-08-29 03:50:00,70.0,66.3,29.94,West,262,0.0,0.0,88,0.00,,SKC,0.00,VWS V14.01,2013-08-29 07:50:00,
2013-08-29 03:56:00,70.0,66.3,29.94,West,262,0.0,0.0,88,0.00,,SKC,0.00,VWS V14.01,2013-08-29 07:56:00,
2013-08-29 04:00:00,69.9,66.2,29.94,West,262,0.0,0.0,88,0.00,,SKC,0.00,VWS V14.01,2013-08-29 08:00:00,
2013-08-29 04:01:00,70.0,66.3,29.94,West,262,0.0,0.0,88,0.00,,SKC,0.00,VWS V14.01,2013-08-29 08:01:00,
2013-08-29 04:07:00,70.0,66.3,29.93,West,262,0.0,0.0,88,0.00,,SKC,0.00,VWS V14.01,2013-08-29 08:07:00,
2013-08-29 04:12:00,70.0,66.3,29.94,West,262,0.0,0.0,88,0.00,,SKC,0.00,VWS V14.01,2013-08-29 08:12:00,
2013-08-29 04:17:00,70.0,66.3,29.93,West,262,0.0,0.0,88,0.00,,SKC,0.00,VWS V14.01,2013-08-29 08:17:00,
2013-08-29 04:23:00,70.0,66.3,29.94,West,262,0.0,0.0,88,0.00,,SKC,0.00,VWS V14.01,2013-08-29 08:23:00,
2013-08-29 04:28:00,70.0,66.3,29.94,West,262,0.0,0.0,88,0.00,,SKC,0.00,VWS V14.01,2013-08-29 08:28:00,
2013-08-29 04:30:00,70.0,66.3,29.94,West,262,0.0,0.0,88,0.00,,SKC,0.00,VWS V14.01,2013-08-29 08:30:00,
2013-08-29 04:34:00,70.0,66.3,29.94,WNW,287,0.0,0.0,88,0.00,,SKC,0.00,VWS V14.01,2013-08-29 08:34:00,
2013-08-29 04:39:00,70.2,66.8,29.94,WNW,293,0.0,0.0,89,0.00,,SKC,0.00,VWS V14.01,2013-08-29 08:39:00,
2013-08-29 04:45:00,70.2,66.8,29.94,WNW,293,0.0,0.0,89,0.00,,SKC,0.00,VWS V14.01,2013-08-29 08:45:00,
2013-08-29 04:50:00,70.2,66.8,29.94,WNW,293,0.0,0.0,89,0.00,,SKC,0.00,VWS V14.01,2013-08-29 08:50:00,
2013-08-29 04:55:00,70.2,66.8,29.94,WNW,293,0.0,0.0,89,0.00,,SKC,0.00,VWS V14.01,2013-08-29 08:55:00,
2013-08-29 05:00:00,70.2,66.8,29.94,WNW,293,0.0,0.0,89,0.00,,SKC,0.00,VWS V14.01,2013-08-29 09:00:00,
2013-08-29 05:01:00,70.1,66.7,29.94,WNW,293,0.0,0.0,89,0.00,,SKC,0.00,VWS V14.01,2013-08-29 09:01:00,
2013-08-29 05:06:00,70.1,66.7,29.93,West,280,0.0,0.0,89,0.00,,SKC,0.00,VWS V14.01,2013-08-29 09:06:00,
2013-08-29 05:12:00,70.0,66.6,29.93,West,279,0.0,0.0,89,0.00,,SKC,0.00,VWS V14.01,2013-08-29 09:12:00,
2013-08-29 05:17:00,70.0,66.6,29.94,West,279,0.0,0.0,89,0.00,,SKC,0.00,VWS V14.01,2013-08-29 09:17:00,
2013-08-29 05:23:00,69.8,66.4,29.94,West,279,0.0,0.0,89,0.00,,SKC,0.00,VWS V14.01,2013-08-29 09:23:00,
2013-08-29 05:28:00,69.7,66.3,29.94,West,280,0.0,0.0,89,0.00,,SKC,0.00,VWS V14.01,2013-08-29 09:28:00,
2013-08-29 05:30:00,69.7,66.3,29.94,West,279,0.0,0.0,89,0.00,,SKC,0.00,VWS V14.01,2013-08-29 09:30:00,
2013-08-29 05:33:00,69.6,66.2,29.93,West,279,0.0,0.0,89,0.00,,SKC,0.00,VWS V14.01,2013-08-29 09:33:00,
2013-08-29 05:39:00,69.5,66.1,29.94,West,280,0.0,0.0,89,0.00,,SKC,0.00,VWS V14.01,2013-08-29 09:39:00,
2013-08-29 05:44:00,69.4,66.0,29.94,West,280,0.0,0.0,89,0.00,,SKC,0.00,VWS V14.01,2013-08-29 09:44:00,
2013-08-29 05:50:00,69.4,66.0,29.94,WNW,298,0.0,0.0,89,0.00,,SKC,0.00,VWS V14.01,2013-08-29 09:50:00,
2013-08-29 05:57:00,69.3,65.9,29.93,WNW,293,0.0,0.0,89,0.00,,SKC,0.00,VWS V14.01,2013-08-29 09:57:00,
2013-08-29 06:00:00,69.3,65.9,29.94,WNW,293,0.0,0.0,89,0.00,,SKC,0.00,VWS V14.01,2013-08-29 10:00:00,
2013-08-29 06:03:00,69.2,65.8,29.94,WNW,294,0.0,0.0,89,0.00,,SKC,0.00,VWS V14.01,2013-08-29 10:03:00,
2013-08-29 06:08:00,69.1,65.7,29.93,WNW,294,0.0,0.0,89,0.00,,SKC,0.00,VWS V14.01,2013-08-29 10:08:00,
2013-08-29 06:14:00,69.0,65.6,29.94,WNW,293,0.0,0.0,89,0.00,,SKC,0.00,VWS V14.01,2013-08-29 10:14:00,
2013-08-29 06:19:00,68.9,65.5,29.94,WNW,293,0.0,0.0,89,0.00,,SKC,0.00,VWS V14.01,2013-08-29 10:19:00,
2013-08-29 06:25:00,68.8,65.4,29.94,WNW,293,0.0,0.0,89,0.00,,SKC,0.00,VWS V14.01,2013-08-29 10:25:00,
2013-08-29 06:30:00,68.8,65.4,29.94,WNW,293,0.0,0.0,89,0.00,,SKC,0.00,VWS V14.01,2013-08-29 10:30:00,
2013-08-29 06:36:00,68.7,65.3,29.94,WNW,293,0.0,0.0,89,0.00,,SKC,0.00,VWS V14.01,2013-08-29 10:36:00,
2013-08-29 06:41:00,68.7,65.3,29.94,WNW,293,0.0,0.0,89,0.00,,SKC,0.00,VWS V14.01,2013-08-29 10:41:00,
2013-08-29 06:46:00,68.8,65.4,29.95,WNW,293,0.0,0.0,89,0.00,,SKC,0.00,VWS V14.01,2013-08-29 10:46:00,
2013-08-29 06:52:00,68.7,65.3,29.95,WNW,293,0.0,0.0,89,0.00,,SKC,0.00,VWS V14.01,2013-08-29 10:52:00,
2013-08-29 06:57:00,68.7,65.3,29.95,WNW,293,0.0,0.0,89,0.00,,SKC,0.00,VWS V14.01,2013-08-29 10:57:00,
2013-08-29 07:00:00,68.7,65.3,29.95,WNW,288,0.0,0.0,89,0.00,,SKC,0.00,VWS V14.01,2013-08-29 11:00:00,
2013-08-29 07:03:00,68.7,65.3,29.95,WNW,287,0.0,0.0,89,0.00,,SKC,0.00,VWS V14.01,2013-08-29 11:03:00,
2013-08-29 07:08:00,68.7,65.3,29.95,WNW,287,0.0,0.0,89,0.00,,SKC,0.00,VWS V14.01,2013-08-29 11:08:00,
2013-08-29 07:13:00,68.7,65.3,29.95,WNW,287,0.0,0.0,89,0.00,,SKC,0.00,VWS V14.01,2013-08-29 11:13:00,
2013-08-29 07:19:00,68.6,65.2,29.95,WNW,287,0.0,0.0,89,0.00,,SKC,0.00,VWS V14.01,2013-08-29 11:19:00,
2013-08-29 07:24:00,68.7,65.3,29.95,WNW,287,0.0,0.0,89,0.00,,SKC,0.00,VWS V14.01,2013-08-29 11:24:00,
2013-08-29 07:30:00,68.8,65.4,29.95,WNW,287,0.0,0.0,89,0.00,,SKC,0.00,VWS V14.01,2013-08-29 11:30:00,
2013-08-29 07:35:00,68.9,65.5,29.96,WNW,287,0.0,0.0,89,0.00,,SKC,0.00,VWS V14.01,2013-08-29 11:35:00,
2013-08-29 07:41:00,69.2,65.8,29.96,WNW,287,0.0,0.0,89,0.00,,SKC,0.00,VWS V14.01,2013-08-29 11:41:00,
2013-08-29 07:46:00,69.4,66.0,29.96,NE,53,0.0,0.0,89,0.00,,SKC,0.00,VWS V14.01,2013-08-29 11:46:00,
2013-08-29 07:51:00,69.6,66.2,29.96,NE,53,0.0,0.0,89,0.00,,SKC,0.00,VWS V14.01,2013-08-29 11:51:00,
2013-08-29 07:57:00,69.8,66.4,29.96,NE,53,0.0,0.0,89,0.00,,SKC,0.00,VWS V14.01,2013-08-29 11:57:00,
2013-08-29 08:00:00,69.8,66.4,29.96,NE,53,0.0,0.0,89,0.00,,SKC,0.00,VWS V14.01,2013-08-29 12:00:00,
2013-08-29 08:02:00,69.9,66.5,29.96,NE,53,0.0,0.0,89,0.00,,SKC,0.00,VWS V14.01,2013-08-29 12:02:00,
2013-08-29 08:08:00,70.2,66.8,29.96,WNW,291,0.0,0.0,89,0.00,,SKC,0.00,VWS V14.01,2013-08-29 12:08:00,
2013-08-29 08:13:00,70.6,66.9,29.96,WNW,290,0.0,0.0,88,0.00,,SKC,0.00,VWS V14.01,2013-08-29 12:13:00,
2013-08-29 08:18:00,71.0,66.9,29.96,WNW,293,0.0,0.0,87,0.00,,SKC,0.00,VWS V14.01,2013-08-29 12:18:00,
2013-08-29 08:24:00,71.3,66.9,29.96,West,279,0.0,0.0,86,0.00,,SKC,0.00,VWS V14.01,2013-08-29 12:24:00,
2013-08-29 08:29:00,71.6,67.5,29.96,West,279,0.0,0.0,87,0.00,,SKC,0.00,VWS V14.01,2013-08-29 12:29:00,
2013-08-29 08:30:00,71.6,67.5,29.96,West,279,0.0,0.0,87,0.00,,SKC,0.00,VWS V14.01,2013-08-29 12:30:00,
2013-08-29 08:35:00,71.7,67.3,29.96,West,281,0.0,0.0,86,0.00,,SKC,0.00,VWS V14.01,2013-08-29 12:35:00,
2013-08-29 08:40:00,72.0,67.9,29.97,East,98,0.0,0.0,87,0.00,,SKC,0.00,VWS V14.01,2013-08-29 12:40:00,
2013-08-29 08:46:00,72.1,67.7,29.97,East,97,0.0,0.0,86,0.00,,SKC,0.00,VWS V14.01,2013-08-29 12:46:00,
2013-08-29 08:51:00,72.3,67.9,29.97,East,98,0.0,0.0,86,0.00,,SKC,0.00,VWS V14.01,2013-08-29 12:51:00,
2013-08-29 08:56:00,72.5,68.1,29.97,East,97,0.0,0.0,86,0.00,,SKC,0.00,VWS V14.01,2013-08-29 12:56:00,
2013-08-29 09:00:00,72.4,67.6,29.97,East,98,0.0,0.0,85,0.00,,SKC,0.00,VWS V14.01,2013-08-29 13:00:00,
2013-08-29 09:02:00,72.5,68.1,29.97,East,98,0.0,0.0,86,0.00,,SKC,0.00,VWS V14.01,2013-08-29 13:02:00,
2013-08-29 09:07:00,72.8,68.4,29.97,East,98,0.0,0.0,86,0.00,,SKC,0.00,VWS V14.01,2013-08-29 13:07:00,
2013-08-29 09:13:00,73.2,68.8,29.97,East,98,0.0,0.0,86,0.00,,SKC,0.00,VWS V14.01,2013-08-29 13:13:00,
2013-08-29 09:18:00,73.8,68.3,29.97,WNW,294,0.0,0.0,83,0.00,,SKC,0.00,VWS V14.01,2013-08-29 13:18:00,
2013-08-29 09:24:00,74.7,69.6,29.97,West,281,0.0,0.0,84,0.00,,SKC,0.00,VWS V14.01,2013-08-29 13:24:00,
2013-08-29 09:29:00,75.1,69.6,29.97,WNW,283,0.0,0.0,83,0.00,,SKC,0.00,VWS V14.01,2013-08-29 13:29:00,
2013-08-29 09:30:00,75.1,69.2,29.97,WNW,283,0.0,0.0,82,0.00,,SKC,0.00,VWS V14.01,2013-08-29 13:30:00,
2013-08-29 09:34:00,75.6,70.1,29.97,West,268,0.0,0.0,83,0.00,,SKC,0.00,VWS V14.01,2013-08-29 13:34:00,
2013-08-29 09:40:00,75.9,69.7,29.97,West,272,0.0,0.0,81,0.00,,SKC,0.00,VWS V14.01,2013-08-29 13:40:00,
2013-08-29 09:45:00,76.3,70.1,29.97,SE,129,0.0,0.0,81,0.00,,SKC,0.00,VWS V14.01,2013-08-29 13:45:00,
2013-08-29 09:51:00,76.7,70.8,29.97,SE,128,0.0,0.0,82,0.00,,SKC,0.00,VWS V14.01,2013-08-29 13:51:00,
2013-08-29 09:56:00,76.8,70.5,29.97,SE,128,0.0,0.0,81,0.00,,SKC,0.00,VWS V14.01,2013-08-29 13:56:00,
2013-08-29 10:00:00,76.8,70.9,29.97,SE,128,0.0,0.0,82,0.00,,SKC,0.00,VWS V14.01,2013-08-29 14:00:00,
2013-08-29 10:01:00,76.8,70.9,29.97,SE,129,0.0,0.0,82,0.00,,SKC,0.00,VWS V14.01,2013-08-29 14:01:00,
2013-08-29 10:07:00,76.9,71.0,29.97,SE,128,0.0,0.0,82,0.00,,SKC,0.00,VWS V14.01,2013-08-29 14:07:00,
2013-08-29 10:12:00,77.9,71.6,29.97,ESE,110,0.0,0.0,81,0.00,,SKC,0.00,VWS V14.01,2013-08-29 14:12:00,
2013-08-29 10:18:00,80.1,71.9,29.98,ESE,121,0.0,0.0,76,0.00,,SKC,0.00,VWS V14.01,2013-08-29 14:18:00,
2013-08-29 10:23:00,82.2,73.5,29.98,SE,128,0.0,0.0,75,0.00,,SKC,0.00,VWS V14.01,2013-08-29 14:23:00,
2013-08-29 10:29:00,83.4,73.0,29.97,SSE,163,0.0,0.0,71,0.00,,SKC,0.00,VWS V14.01,2013-08-29 14:29:00,
2013-08-29 10:30:00,83.7,73.3,29.97,SE,125,0.0,0.0,71,0.00,,SKC,0.00,VWS V14.01,2013-08-29 14:30:00,
2013-08-29 10:34:00,85.0,74.1,29.97,West,266,0.0,0.0,70,0.00,,SKC,0.00,VWS V14.01,2013-08-29 14:34:00,
2013-08-29 10:39:00,85.7,73.9,29.98,WNW,284,0.0,0.0,68,0.00,,SKC,0.00,VWS V14.01,2013-08-29 14:39:00,
2013-08-29 10:45:00,86.1,73.0,29.98,ENE,71,0.0,0.0,65,0.00,,SKC,0.00,VWS V14.01,2013-08-29 14:45:00,
2013-08-29 10:50:00,85.8,73.1,29.98,ESE,102,0.0,0.0,66,0.00,,SKC,0.00,VWS V14.01,2013-08-29 14:50:00,
2013-08-29 10:56:00,86.1,72.5,29.97,East,86,0.0,0.0,64,0.00,,SKC,0.00,VWS V14.01,2013-08-29 14:56:00,
2013-08-29 11:00:00,86.2,72.6,29.97,WSW,258,0.0,0.0,64,0.00,,SKC,0.00,VWS V14.01,2013-08-29 15:00:00,
2013-08-29 11:01:00,86.1,73.0,29.97,ENE,72,0.0,0.0,65,0.00,,SKC,0.00,VWS V14.01,2013-08-29 15:01:00,
2013-08-29 11:07:00,85.4,72.8,29.98,South,186,0.0,0.0,66,0.00,,SKC,0.00,VWS V14.01,2013-08-29 15:07:00,
2013-08-29 11:12:00,85.1,72.5,29.98,SSE,147,0.0,0.0,66,0.00,,SKC,0.00,VWS V14.01,2013-08-29 15:12:00,
2013-08-29 11:17:00,84.8,72.2,29.97,West,274,0.0,0.0,66,0.00,,SKC,0.00,VWS V14.01,2013-08-29 15:17:00,
2013-08-29 11:23:00,84.2,72.1,29.97,ESE,111,0.0,0.0,67,0.00,,SKC,0.00,VWS V14.01,2013-08-29 15:23:00,
2013-08-29 11:28:00,84.2,71.6,29.97,West,267,0.0,0.0,66,0.00,,SKC,0.00,VWS V14.01,2013-08-29 15:28:00,
2013-08-29 11:30:00,84.2,72.1,29.97,NE,55,0.0,0.0,67,0.00,,SKC,0.00,VWS V14.01,2013-08-29 15:30:00,
2013-08-29 11:34:00,84.3,71.7,29.97,East,96,0.0,0.0,66,0.00,,SKC,0.00,VWS V14.01,2013-08-29 15:34:00,
2013-08-29 11:39:00,84.6,72.4,29.96,SE,133,0.0,0.0,67,0.00,,SKC,0.00,VWS V14.01,2013-08-29 15:39:00,
2013-08-29 11:45:00,84.7,72.5,29.97,ENE,72,0.0,0.0,67,0.00,,SKC,0.00,VWS V14.01,2013-08-29 15:45:00,
2013-08-29 11:50:00,84.5,72.3,29.96,East,84,0.0,0.0,67,0.00,,SKC,0.00,VWS V14.01,2013-08-29 15:50:00,
2013-08-29 11:55:00,84.8,73.5,29.97,East,84,0.0,0.0,69,0.00,,SKC,0.00,VWS V14.01,2013-08-29 15:55:00,
2013-08-29 12:00:00,85.2,73.4,29.97,ESE,103,0.0,0.0,68,0.00,,SKC,0.00,VWS V14.01,2013-08-29 16:00:00,
2013-08-29 12:01:00,85.3,73.1,29.97,SE,143,0.0,0.0,67,0.00,,SKC,0.00,VWS V14.01,2013-08-29 16:01:00,
2013-08-29 12:06:00,85.4,73.2,29.97,ENE,77,0.0,0.0,67,0.00,,SKC,0.00,VWS V14.01,2013-08-29 16:06:00,
2013-08-29 12:12:00,85.5,72.4,29.97,West,274,0.0,0.0,65,0.00,,SKC,0.00,VWS V14.01,2013-08-29 16:12:00,
2013-08-29 12:17:00,85.9,73.2,29.96,WNW,289,0.0,0.0,66,0.00,,SKC,0.00,VWS V14.01,2013-08-29 16:17:00,
2013-08-29 12:22:00,86.1,73.4,29.96,NE,38,0.0,0.0,66,0.00,,SKC,0.00,VWS V14.01,2013-08-29 16:22:00,
2013-08-29 12:28:00,86.5,72.9,29.96,East,84,0.0,0.0,64,0.00,,SKC,0.00,VWS V14.01,2013-08-29 16:28:00,
2013-08-29 12:30:00,86.6,73.4,29.96,East,96,0.0,0.0,65,0.00,,SKC,0.00,VWS V14.01,2013-08-29 16:30:00,
2013-08-29 12:33:00,86.7,73.5,29.96,East,99,0.0,0.0,65,0.00,,SKC,0.00,VWS V14.01,2013-08-29 16:33:00,
2013-08-29 12:39:00,87.1,73.9,29.96,ENE,76,0.0,0.0,65,0.00,,SKC,0.00,VWS V14.01,2013-08-29 16:39:00,
2013-08-29 12:44:00,87.3,72.7,29.96,East,95,0.0,0.0,62,0.00,,SKC,0.00,VWS V14.01,2013-08-29 16:44:00,
2013-08-29 12:50:00,87.1,74.4,29.95,West,278,0.0,0.0,66,0.00,,SKC,0.00,VWS V14.01,2013-08-29 16:50:00,
2013-08-29 12:55:00,87.0,74.7,29.95,SW,236,0.0,0.0,67,0.00,,SKC,0.00,VWS V14.01,2013-08-29 16:55:00,
2013-08-29 13:00:00,87.1,73.4,29.95,West,281,0.0,0.0,64,0.00,,SKC,0.00,VWS V14.01,2013-08-29 17:00:00,
2013-08-29 13:06:00,86.9,74.2,29.95,East,100,0.0,0.0,66,0.00,,SKC,0.00,VWS V14.01,2013-08-29 17:06:00,
2013-08-29 13:11:00,86.9,73.7,29.95,SW,232,0.0,0.0,65,0.00,,SKC,0.00,VWS V14.01,2013-08-29 17:11:00,
2013-08-29 13:17:00,87.5,73.4,29.95,West,274,0.0,0.0,63,0.00,,SKC,0.00,VWS V14.01,2013-08-29 17:17:00,
2013-08-29 13:22:00,87.8,74.6,29.95,West,270,0.0,0.0,65,0.00,,SKC,0.00,VWS V14.01,2013-08-29 17:22:00,
2013-08-29 13:28:00,88.3,75.1,29.95,West,270,0.0,0.0,65,0.00,,SKC,0.00,VWS V14.01,2013-08-29 17:28:00,
2013-08-29 13:30:00,88.5,75.2,29.95,West,270,0.0,0.0,65,0.00,,SKC,0.00,VWS V14.01,2013-08-29 17:30:00,
2013-08-29 13:33:00,88.5,74.8,29.95,West,270,0.0,0.0,64,0.00,,SKC,0.00,VWS V14.01,2013-08-29 17:33:00,
2013-08-29 13:38:00,88.4,74.2,29.95,WNW,285,0.0,0.0,63,0.00,,SKC,0.00,VWS V14.01,2013-08-29 17:38:00,
2013-08-29 13:44:00,88.3,74.6,29.95,WSW,248,0.0,0.0,64,0.00,,SKC,0.00,VWS V14.01,2013-08-29 17:44:00,
2013-08-29 13:49:00,88.9,76.1,29.94,SW,225,0.0,0.0,66,0.00,,SKC,0.00,VWS V14.01,2013-08-29 17:49:00,
2013-08-29 13:55:00,90.1,76.3,29.94,SSW,201,0.0,0.0,64,0.00,,SKC,0.00,VWS V14.01,2013-08-29 17:55:00,
2013-08-29 14:00:00,89.4,72.2,29.94,SE,128,0.0,0.0,57,0.00,,SKC,0.00,VWS V14.01,2013-08-29 18:00:00,
2013-08-29 14:05:00,89.8,73.1,29.94,WNW,301,0.0,0.0,58,0.00,,SKC,0.00,VWS V14.01,2013-08-29 18:05:00,
2013-08-29 14:11:00,90.6,74.3,29.94,East,100,0.0,1.0,59,0.00,,SKC,0.00,VWS V14.01,2013-08-29 18:11:00,
2013-08-29 14:16:00,91.1,73.2,29.94,WNW,284,0.0,1.0,56,0.00,,SKC,0.00,VWS V14.01,2013-08-29 18:16:00,
2013-08-29 14:22:00,91.9,74.0,29.93,SE,136,0.0,1.0,56,0.00,,SKC,0.00,VWS V14.01,2013-08-29 18:22:00,
2013-08-29 14:27:00,91.6,72.1,29.93,West,259,0.0,1.0,53,0.00,,SKC,0.00,VWS V14.01,2013-08-29 18:27:00,
2013-08-29 14:30:00,91.0,73.1,29.93,WNW,301,0.0,1.0,56,0.00,,SKC,0.00,VWS V14.01,2013-08-29 18:30:00,
2013-08-29 14:33:00,90.6,74.3,29.93,SW,236,0.0,0.0,59,0.00,,SKC,0.00,VWS V14.01,2013-08-29 18:33:00,
2013-08-29 14:38:00,90.8,74.0,29.93,East,91,0.0,0.0,58,0.00,,SKC,0.00,VWS V14.01,2013-08-29 18:38:00,
2013-08-29 14:43:00,91.0,75.2,29.93,East,86,0.0,0.0,60,0.00,,SKC,0.00,VWS V14.01,2013-08-29 18:43:00,
2013-08-29 14:49:00,90.6,75.8,29.93,East,86,0.0,0.0,62,0.00,,SKC,0.00,VWS V14.01,2013-08-29 18:49:00,
2013-08-29 14:54:00,89.8,74.6,29.92,East,86,0.0,0.0,61,0.00,,SKC,0.00,VWS V14.01,2013-08-29 18:54:00,
2013-08-29 15:00:00,89.1,76.3,29.92,East,86,0.0,0.0,66,0.00,,SKC,0.00,VWS V14.01,2013-08-29 19:00:00,
2013-08-29 15:05:00,89.7,76.4,29.92,East,86,0.0,0.0,65,0.00,,SKC,0.00,VWS V14.01,2013-08-29 19:05:00,
2013-08-29 15:11:00,90.4,74.6,29.92,WNW,287,0.0,0.0,60,0.00,,SKC,0.00,VWS V14.01,2013-08-29 19:11:00,
2013-08-29 15:16:00,90.5,74.7,29.92,West,278,0.0,0.0,60,0.00,,SKC,0.00,VWS V14.01,2013-08-29 19:16:00,
2013-08-29 15:21:00,91.2,74.9,29.91,West,259,0.0,0.0,59,0.00,,SKC,0.00,VWS V14.01,2013-08-29 19:21:00,
2013-08-29 15:27:00,91.5,73.6,29.91,WNW,283,0.0,0.0,56,0.00,,SKC,0.00,VWS V14.01,2013-08-29 19:27:00,
2013-08-29 15:30:00,91.2,74.4,29.91,West,278,0.0,0.0,58,0.00,,SKC,0.00,VWS V14.01,2013-08-29 19:30:00,
2013-08-29 15:32:00,91.3,75.0,29.91,WNW,301,0.0,0.0,59,0.00,,SKC,0.00,VWS V14.01,2013-08-29 19:32:00,
2013-08-29 15:38:00,91.6,74.7,29.91,West,276,0.0,0.0,58,0.00,,SKC,0.00,VWS V14.01,2013-08-29 19:38:00,
2013-08-29 15:43:00,91.3,75.0,29.91,West,260,0.0,0.0,59,0.00,,SKC,0.00,VWS V14.01,2013-08-29 19:43:00,
2013-08-29 15:48:00,90.8,74.0,29.91,SW,215,0.0,0.0,58,0.00,,SKC,0.00,VWS V14.01,2013-08-29 19:48:00,
2013-08-29 15:54:00,90.3,73.5,29.90,West,266,0.0,0.0,58,0.00,,SKC,0.00,VWS V14.01,2013-08-29 19:54:00,
2013-08-29 15:59:00,89.2,73.5,29.91,WNW,284,0.0,0.0,60,0.00,,SKC,0.00,VWS V14.01,2013-08-29 19:59:00,
2013-08-29 16:00:00,89.2,73.5,29.91,WNW,284,0.0,0.0,60,0.00,,SKC,0.00,VWS V14.01,2013-08-29 20:00:00,
2013-08-29 16:05:00,88.9,74.2,29.90,West,269,0.0,0.0,62,0.00,,SKC,0.00,VWS V14.01,2013-08-29 20:05:00,
2013-08-29 16:10:00,88.7,75.0,29.91,West,276,0.0,0.0,64,0.00,,SKC,0.00,VWS V14.01,2013-08-29 20:10:00,
2013-08-29 16:16:00,88.8,74.1,29.90,WNW,295,0.0,0.0,62,0.00,,SKC,0.00,VWS V14.01,2013-08-29 20:16:00,
2013-08-29 16:21:00,88.6,73.4,29.90,WNW,299,0.0,0.0,61,0.00,,SKC,0.00,VWS V14.01,2013-08-29 20:21:00,
2013-08-29 16:27:00,88.9,74.2,29.90,WSW,255,0.0,0.0,62,0.00,,SKC,0.00,VWS V14.01,2013-08-29 20:27:00,
2013-08-29 16:30:00,89.2,75.0,29.90,SSW,197,0.0,0.0,63,0.00,,SKC,0.00,VWS V14.01,2013-08-29 20:30:00,
2013-08-29 16:32:00,89.6,74.4,29.90,SSW,200,0.0,0.0,61,0.00,,SKC,0.00,VWS V14.01,2013-08-29 20:32:00,
2013-08-29 16:37:00,90.5,74.2,29.90,SSW,197,0.0,0.0,59,0.00,,SKC,0.00,VWS V14.01,2013-08-29 20:37:00,
2013-08-29 16:43:00,90.5,73.7,29.90,West,278,0.0,0.0,58,0.00,,SKC,0.00,VWS V14.01,2013-08-29 20:43:00,
2013-08-29 16:48:00,89.7,73.5,29.90,South,181,0.0,0.0,59,0.00,,SKC,0.00,VWS V14.01,2013-08-29 20:48:00,
2013-08-29 16:54:00,89.3,73.1,29.90,WNW,302,0.0,0.0,59,0.00,,SKC,0.00,VWS V14.01,2013-08-29 20:54:00,
2013-08-29 16:59:00,89.3,73.6,29.90,WSW,248,0.0,0.0,60,0.00,,SKC,0.00,VWS V14.01,2013-08-29 20:59:00,
2013-08-29 17:00:00,89.3,73.1,29.90,WSW,248,0.0,0.0,59,0.00,,SKC,0.00,VWS V14.01,2013-08-29 21:00:00,
2013-08-29 17:05:00,89.2,74.0,29.90,West,266,0.0,0.0,61,0.00,,SKC,0.00,VWS V14.01,2013-08-29 21:05:00,
2013-08-29 17:10:00,89.0,73.3,29.90,West,281,0.0,0.0,60,0.00,,SKC,0.00,VWS V14.01,2013-08-29 21:10:00,
2013-08-29 17:15:00,88.8,72.6,29.90,ENE,68,0.0,0.0,59,0.00,,SKC,0.00,VWS V14.01,2013-08-29 21:15:00,
2013-08-29 17:21:00,88.6,72.4,29.90,West,272,0.0,0.0,59,0.00,,SKC,0.00,VWS V14.01,2013-08-29 21:21:00,
2013-08-29 17:30:00,88.5,72.8,29.90,West,270,0.0,1.0,60,0.00,,---,0.00,VWS V14.01,2013-08-29 21:30:00,
2013-08-29 17:34:00,88.5,73.8,29.90,WNW,290,0.0,0.0,62,0.00,,SKC,0.00,VWS V14.01,2013-08-29 21:34:00,
2013-08-29 17:40:00,88.4,73.7,29.90,WNW,290,0.0,0.0,62,0.00,,SKC,0.00,VWS V14.01,2013-08-29 21:40:00,
2013-08-29 17:45:00,88.3,73.2,29.90,SW,225,0.0,0.0,61,0.00,,SKC,0.00,VWS V14.01,2013-08-29 21:45:00,
2013-08-29 17:51:00,88.2,72.1,29.90,West,272,0.0,0.0,59,0.00,,SKC,0.00,VWS V14.01,2013-08-29 21:51:00,
2013-08-29 17:56:00,88.0,72.9,29.90,West,278,0.0,0.0,61,0.00,,SKC,0.00,VWS V14.01,2013-08-29 21:56:00,
2013-08-29 18:00:00,87.9,73.3,29.90,West,270,0.0,0.0,62,0.00,,---,0.00,VWS V14.01,2013-08-29 22:00:00,
2013-08-29 18:01:00,87.7,71.1,29.90,West,271,0.0,0.0,58,0.00,,SKC,0.00,VWS V14.01,2013-08-29 22:01:00,
2013-08-29 18:07:00,87.7,73.1,29.90,West,272,0.0,0.0,62,0.00,,SKC,0.00,VWS V14.01,2013-08-29 22:07:00,
2013-08-29 18:12:00,87.6,73.9,29.90,West,272,0.0,0.0,64,0.00,,SKC,0.00,VWS V14.01,2013-08-29 22:12:00,
2013-08-29 18:18:00,87.5,74.3,29.89,West,273,0.0,0.0,65,0.00,,SKC,0.00,VWS V14.01,2013-08-29 22:18:00,
2013-08-29 18:23:00,87.5,73.8,29.90,West,278,0.0,0.0,64,0.00,,SKC,0.00,VWS V14.01,2013-08-29 22:23:00,
2013-08-29 18:29:00,87.6,73.9,29.89,WNW,283,0.0,0.0,64,0.00,,SKC,0.00,VWS V14.01,2013-08-29 22:29:00,
2013-08-29 18:30:00,87.6,73.5,29.89,WSW,248,0.0,1.0,63,0.00,,---,0.00,VWS V14.01,2013-08-29 22:30:00,
2013-08-29 18:34:00,87.3,73.6,29.89,West,274,0.0,0.0,64,0.00,,SKC,0.00,VWS V14.01,2013-08-29 22:34:00,
2013-08-29 18:40:00,87.5,74.3,29.89,West,274,0.0,0.0,65,0.00,,SKC,0.00,VWS V14.01,2013-08-29 22:40:00,
2013-08-29 18:45:00,87.5,74.3,29.89,West,274,0.0,0.0,65,0.00,,SKC,0.00,VWS V14.01,2013-08-29 22:45:00,
2013-08-29 18:50:00,87.6,74.4,29.90,West,274,0.0,0.0,65,0.00,,SKC,0.00,VWS V14.01,2013-08-29 22:50:00,
2013-08-29 18:56:00,87.6,74.4,29.89,West,274,0.0,0.0,65,0.00,,SKC,0.00,VWS V14.01,2013-08-29 22:56:00,
2013-08-29 19:00:00,87.3,74.1,29.89,WSW,248,0.0,0.0,65,0.00,,---,0.00,VWS V14.01,2013-08-29 23:00:00,
2013-08-29 19:01:00,87.1,74.4,29.89,West,274,0.0,0.0,66,0.00,,SKC,0.00,VWS V14.01,2013-08-29 23:01:00,
2013-08-29 19:06:00,86.4,74.2,29.90,West,274,0.0,0.0,67,0.00,,SKC,0.00,VWS V14.01,2013-08-29 23:06:00,
2013-08-29 19:12:00,85.7,73.5,29.90,West,271,0.0,0.0,67,0.00,,SKC,0.00,VWS V14.01,2013-08-29 23:12:00,
2013-08-29 19:18:00,85.2,74.3,29.90,West,271,0.0,0.0,70,0.00,,SKC,0.00,VWS V14.01,2013-08-29 23:18:00,
2013-08-29 19:23:00,84.9,74.4,29.90,West,271,0.0,0.0,71,0.00,,SKC,0.00,VWS V14.01,2013-08-29 23:23:00,
2013-08-29 19:29:00,84.5,74.1,29.90,West,271,0.0,0.0,71,0.00,,SKC,0.00,VWS V14.01,2013-08-29 23:29:00,
2013-08-29 19:30:00,84.5,74.1,29.90,WSW,248,0.0,0.0,71,0.00,,---,0.00,VWS V14.01,2013-08-29 23:30:00,
2013-08-29 19:35:00,84.2,73.4,29.90,West,271,0.0,0.0,70,0.00,,SKC,0.00,VWS V14.01,2013-08-29 23:35:00,
2013-08-29 19:41:00,83.9,73.5,29.91,West,271,0.0,0.0,71,0.00,,SKC,0.00,VWS V14.01,2013-08-29 23:41:00,
2013-08-29 19:46:00,83.6,73.6,29.91,West,271,0.0,0.0,72,0.00,,SKC,0.00,VWS V14.01,2013-08-29 23:46:00,
2013-08-29 19:52:00,83.2,73.7,29.92,West,271,0.0,0.0,73,0.00,,SKC,0.00,VWS V14.01,2013-08-29 23:52:00,
2013-08-29 19:58:00,82.7,73.6,29.92,West,271,0.0,0.0,74,0.00,,SKC,0.00,VWS V14.01,2013-08-29 23:58:00,
2013-08-29 20:00:00,82.6,73.5,29.92,WSW,248,0.0,0.0,74,0.00,,---,0.00,VWS V14.01,2013-08-30 00:00:00,
2013-08-29 20:03:00,82.4,72.9,29.93,West,271,0.0,0.0,73,0.00,,SKC,0.00,VWS V14.01,2013-08-30 00:03:00,
2013-08-29 20:10:00,82.1,73.0,29.92,West,271,0.0,0.0,74,0.00,,SKC,0.00,VWS V14.01,2013-08-30 00:10:00,
2013-08-29 20:15:00,81.9,73.2,29.92,West,271,0.0,0.0,75,0.00,,SKC,0.00,VWS V14.01,2013-08-30 00:15:00,
2013-08-29 20:20:00,81.7,73.0,29.92,West,271,0.0,0.0,75,0.00,,SKC,0.00,VWS V14.01,2013-08-30 00:20:00,
2013-08-29 20:25:00,81.5,72.8,29.92,West,271,0.0,0.0,75,0.00,,SKC,0.00,VWS V14.01,2013-08-30 00:25:00,
2013-08-29 20:30:00,81.3,73.0,29.92,WSW,248,0.0,0.0,76,0.00,,---,0.00,VWS V14.01,2013-08-30 00:30:00,
2013-08-29 20:31:00,81.3,73.0,29.92,West,271,0.0,0.0,76,0.00,,SKC,0.00,VWS V14.01,2013-08-30 00:31:00,
2013-08-29 20:37:00,81.0,73.1,29.93,West,271,0.0,0.0,77,0.00,,SKC,0.00,VWS V14.01,2013-08-30 00:37:00,
2013-08-29 20:42:00,80.6,73.1,29.93,West,271,0.0,0.0,78,0.00,,SKC,0.00,VWS V14.01,2013-08-30 00:42:00,
2013-08-29 20:48:00,80.4,72.9,29.93,West,271,0.0,0.0,78,0.00,,SKC,0.00,VWS V14.01,2013-08-30 00:48:00,
2013-08-29 20:53:00,80.2,72.7,29.93,West,271,0.0,0.0,78,0.00,,SKC,0.00,VWS V14.01,2013-08-30 00:53:00,
2013-08-29 20:59:00,80.1,73.0,29.93,West,271,0.0,0.0,79,0.00,,SKC,0.00,VWS V14.01,2013-08-30 00:59:00,
2013-08-29 21:00:00,80.1,73.0,29.93,WSW,248,0.0,0.0,79,0.00,,---,0.00,VWS V14.01,2013-08-30 01:00:00,
2013-08-29 21:04:00,80.0,72.9,29.94,West,271,0.0,0.0,79,0.00,,SKC,0.00,VWS V14.01,2013-08-30 01:04:00,
2013-08-29 21:10:00,79.9,73.2,29.94,West,271,0.0,0.0,80,0.00,,SKC,0.00,VWS V14.01,2013-08-30 01:10:00,
2013-08-29 21:15:00,79.7,73.0,29.94,West,271,0.0,0.0,80,0.00,,SKC,0.00,VWS V14.01,2013-08-30 01:15:00,
2013-08-29 21:20:00,79.5,73.2,29.94,West,271,0.0,0.0,81,0.00,,SKC,0.00,VWS V14.01,2013-08-30 01:20:00,
2013-08-29 21:26:00,79.3,73.0,29.95,West,271,0.0,0.0,81,0.00,,SKC,0.00,VWS V14.01,2013-08-30 01:26:00,
2013-08-29 21:30:00,79.3,73.0,29.94,WSW,248,0.0,0.0,81,0.00,,---,0.00,VWS V14.01,2013-08-30 01:30:00,
2013-08-29 21:31:00,79.3,73.0,29.94,West,271,0.0,0.0,81,0.00,,SKC,0.00,VWS V14.01,2013-08-30 01:31:00,
2013-08-29 21:37:00,79.2,73.2,29.95,West,272,0.0,0.0,82,0.00,,SKC,0.00,VWS V14.01,2013-08-30 01:37:00,
2013-08-29 21:42:00,79.1,73.1,29.95,West,271,0.0,0.0,82,0.00,,SKC,0.00,VWS V14.01,2013-08-30 01:42:00,
2013-08-29 21:48:00,79.1,73.1,29.95,West,271,0.0,0.0,82,0.00,,SKC,0.00,VWS V14.01,2013-08-30 01:48:00,
2013-08-29 21:53:00,78.9,72.9,29.95,West,271,0.0,0.0,82,0.00,,SKC,0.00,VWS V14.01,2013-08-30 01:53:00,
2013-08-29 21:59:00,78.7,72.8,29.94,West,271,0.0,0.0,82,0.00,,SKC,0.00,VWS V14.01,2013-08-30 01:59:00,
2013-08-29 22:00:00,78.7,72.8,29.94,WSW,248,0.0,0.0,82,0.00,,---,0.00,VWS V14.01,2013-08-30 02:00:00,
2013-08-29 22:05:00,78.7,72.8,29.94,West,271,0.0,0.0,82,0.00,,SKC,0.00,VWS V14.01,2013-08-30 02:05:00,
2013-08-29 22:10:00,78.6,72.7,29.94,West,271,0.0,0.0,82,0.00,,SKC,0.00,VWS V14.01,2013-08-30 02:10:00,
2013-08-29 22:16:00,78.4,72.4,29.94,West,272,0.0,0.0,82,0.00,,SKC,0.00,VWS V14.01,2013-08-30 02:16:00,
2013-08-29 22:21:00,78.3,72.7,29.95,West,271,0.0,0.0,83,0.00,,SKC,0.00,VWS V14.01,2013-08-30 02:21:00,
2013-08-29 22:27:00,78.1,72.2,29.95,West,271,0.0,0.0,82,0.00,,SKC,0.00,VWS V14.01,2013-08-30 02:27:00,
2013-08-29 22:30:00,78.1,72.5,29.94,WSW,248,0.0,0.0,83,0.00,,---,0.00,VWS V14.01,2013-08-30 02:30:00,
2013-08-29 22:32:00,77.9,72.3,29.95,West,271,0.0,0.0,83,0.00,,SKC,0.00,VWS V14.01,2013-08-30 02:32:00,
2013-08-29 22:38:00,77.7,72.5,29.95,West,272,0.0,0.0,84,0.00,,SKC,0.00,VWS V14.01,2013-08-30 02:38:00,
2013-08-29 22:43:00,77.4,72.5,29.95,West,271,0.0,0.0,85,0.00,,SKC,0.00,VWS V14.01,2013-08-30 02:43:00,
2013-08-29 22:48:00,77.2,72.3,29.95,West,271,0.0,0.0,85,0.00,,SKC,0.00,VWS V14.01,2013-08-30 02:48:00,
2013-08-29 22:54:00,77.0,72.2,29.95,West,271,0.0,0.0,85,0.00,,SKC,0.00,VWS V14.01,2013-08-30 02:54:00,
2013-08-29 22:59:00,76.8,71.9,29.95,West,271,0.0,0.0,85,0.00,,SKC,0.00,VWS V14.01,2013-08-30 02:59:00,
2013-08-29 23:00:00,76.8,71.9,29.95,WSW,248,0.0,0.0,85,0.00,,---,0.00,VWS V14.01,2013-08-30 03:00:00,
2013-08-29 23:04:00,76.7,71.9,29.95,West,271,0.0,0.0,85,0.00,,SKC,0.00,VWS V14.01,2013-08-30 03:04:00,
2013-08-29 23:10:00,76.6,71.8,29.95,West,271,0.0,0.0,85,0.00,,SKC,0.00,VWS V14.01,2013-08-30 03:10:00,
2013-08-29 23:16:00,76.4,71.6,29.96,East,79,0.0,0.0,85,0.00,,SKC,0.00,VWS V14.01,2013-08-30 03:16:00,
2013-08-29 23:21:00,76.4,71.2,29.95,East,94,0.0,0.0,84,0.00,,SKC,0.00,VWS V14.01,2013-08-30 03:21:00,
2013-08-29 23:27:00,76.5,71.3,29.96,East,94,0.0,0.0,84,0.00,,SKC,0.00,VWS V14.01,2013-08-30 03:27:00,
2013-08-29 23:30:00,76.6,71.4,29.96,WSW,248,0.0,0.0,84,0.00,,---,0.00,VWS V14.01,2013-08-30 03:30:00,
2013-08-29 23:32:00,76.6,71.4,29.96,East,93,0.0,0.0,84,0.00,,SKC,0.00,VWS V14.01,2013-08-30 03:32:00,
2013-08-29 23:38:00,76.5,71.7,29.96,East,94,0.0,0.0,85,0.00,,SKC,0.00,VWS V14.01,2013-08-30 03:38:00,
2013-08-29 23:44:00,76.4,71.6,29.96,East,94,0.0,0.0,85,0.00,,SKC,0.00,VWS V14.01,2013-08-30 03:44:00,
2013-08-29 23:49:00,76.4,71.6,29.96,SE,129,0.0,0.0,85,0.00,,SKC,0.00,VWS V14.01,2013-08-30 03:49:00,
2013-08-29 23:55:00,76.2,71.4,29.96,East,98,0.0,0.0,85,0.00,,SKC,0.00,VWS V14.01,2013-08-30 03:55:00,